Time;durP1;ratioP1;P1;durP2;ratioP2;P2;SDS_P1;SDS_P2;PMS_P1;PMS_P2;Temp;Humidity;BMP_temperature;BMP_pressure;BME280_temperature;BME280_humidity;BME280_pressure;Samples;Min_cycle;Max_cycle;Signal;HPM_P1;HPM_P2
2022/03/06 00:00:49;;;;;;;32.90;14.52;;;;;;;;;;5048172;28;20049;-78
2022/03/06 00:03:15;;;;;;;37.83;14.80;;;;;;;;;;5065570;28;20062;-79
2022/03/06 00:05:42;;;;;;;33.92;14.95;;;;;;;;;;5056584;28;20049;-79
2022/03/06 00:08:08;;;;;;;32.70;15.30;;;;;;;;;;5061016;28;20049;-79
2022/03/06 00:10:35;;;;;;;33.85;13.85;;;;;;;;;;5059398;28;20042;-79
2022/03/06 00:13:01;;;;;;;35.65;14.05;;;;;;;;;;5043502;28;20066;-79
2022/03/06 00:15:27;;;;;;;34.70;14.18;;;;;;;;;;5037560;28;20046;-80
2022/03/06 00:17:55;;;;;;;35.38;14.20;;;;;;;;;;5041741;28;20931;-80
2022/03/06 00:20:22;;;;;;;35.47;13.95;;;;;;;;;;5056671;28;20060;-78
2022/03/06 00:22:48;;;;;;;35.35;13.95;;;;;;;;;;5061433;28;20061;-80
2022/03/06 00:25:15;;;;;;;32.15;13.32;;;;;;;;;;5067934;28;20767;-80
2022/03/06 00:27:41;;;;;;;36.20;14.85;;;;;;;;;;5060348;28;20049;-78
2022/03/06 00:30:08;;;;;;;34.13;13.23;;;;;;;;;;5057773;28;20049;-78
2022/03/06 00:32:37;;;;;;;30.27;13.40;;;;;;;;;;5053563;28;20140;-78
2022/03/06 00:35:03;;;;;;;31.35;13.55;;;;;;;;;;5045368;28;20691;-80
2022/03/06 00:37:30;;;;;;;34.00;14.40;;;;;;;;;;5041973;28;20053;-79
2022/03/06 00:39:56;;;;;;;33.08;13.63;;;;;;;;;;5053564;28;20077;-78
2022/03/06 00:42:22;;;;;;;32.13;13.75;;;;;;;;;;5040037;28;20037;-79
2022/03/06 00:44:50;;;;;;;37.50;13.70;;;;;;;;;;5056642;28;20048;-78
2022/03/06 00:47:17;;;;;;;30.10;13.95;;;;;;;;;;5057164;28;20053;-79
2022/03/06 00:49:43;;;;;;;30.42;12.73;;;;;;;;;;5058824;28;20038;-80
2022/03/06 00:52:10;;;;;;;32.78;12.88;;;;;;;;;;5059054;28;20041;-79
2022/03/06 00:54:36;;;;;;;32.03;13.32;;;;;;;;;;5048301;28;20058;-78
2022/03/06 00:57:02;;;;;;;34.05;14.43;;;;;;;;;;5046767;28;20081;-80
2022/03/06 00:59:33;;;;;;;33.83;13.32;;;;;;;;;;5042100;28;20054;-78
2022/03/06 01:02:00;;;;;;;32.45;13.70;;;;;;;;;;5054375;28;20057;-79
2022/03/06 01:04:26;;;;;;;30.23;13.18;;;;;;;;;;5057639;28;20046;-79
2022/03/06 01:06:53;;;;;;;29.88;12.50;;;;;;;;;;5045309;28;20073;-80
2022/03/06 01:09:19;;;;;;;33.20;13.55;;;;;;;;;;5068396;28;20049;-78
2022/03/06 01:11:45;;;;;;;34.33;13.00;;;;;;;;;;5047257;28;20068;-79
2022/03/06 01:14:12;;;;;;;33.90;14.10;;;;;;;;;;5041162;28;20076;-80
2022/03/06 01:16:38;;;;;;;33.58;13.35;;;;;;;;;;5073453;28;20103;-80
2022/03/06 01:19:05;;;;;;;32.28;13.45;;;;;;;;;;5054656;28;20144;-80
2022/03/06 01:21:31;;;;;;;28.95;13.55;;;;;;;;;;5077754;28;20420;-79
2022/03/06 01:23:58;;;;;;;31.10;12.57;;;;;;;;;;5078438;28;20037;-79
2022/03/06 01:26:24;;;;;;;31.60;14.48;;;;;;;;;;5057668;28;20054;-79
2022/03/06 01:28:50;;;;;;;32.88;13.45;;;;;;;;;;5057156;28;20053;-79
2022/03/06 01:31:17;;;;;;;32.90;13.88;;;;;;;;;;5056605;28;20046;-79
2022/03/06 01:33:43;;;;;;;30.17;13.63;;;;;;;;;;5061285;28;20064;-79
2022/03/06 01:36:10;;;;;;;30.33;13.77;;;;;;;;;;5047065;28;21206;-80
2022/03/06 01:38:36;;;;;;;32.30;14.02;;;;;;;;;;5068270;28;20072;-78
2022/03/06 01:41:03;;;;;;;31.08;13.77;;;;;;;;;;5059193;28;20065;-79
2022/03/06 01:43:29;;;;;;;32.17;14.27;;;;;;;;;;5060598;28;20069;-78
2022/03/06 01:45:56;;;;;;;33.67;13.57;;;;;;;;;;5079857;28;20072;-80
2022/03/06 01:48:22;;;;;;;30.67;12.50;;;;;;;;;;5062859;28;20042;-79
2022/03/06 01:50:48;;;;;;;30.58;13.68;;;;;;;;;;5061941;28;20030;-79
2022/03/06 01:53:15;;;;;;;29.33;12.43;;;;;;;;;;5052468;28;20050;-80
2022/03/06 01:55:42;;;;;;;27.08;12.02;;;;;;;;;;5058575;28;20479;-79
2022/03/06 01:58:10;;;;;;;29.92;13.05;;;;;;;;;;5054758;28;20097;-79
2022/03/06 02:00:38;;;;;;;31.48;12.90;;;;;;;;;;5053428;28;20150;-78
2022/03/06 02:03:05;;;;;;;30.08;13.18;;;;;;;;;;5050225;28;20049;-78
2022/03/06 02:05:31;;;;;;;29.58;12.45;;;;;;;;;;5057697;28;20057;-78
2022/03/06 02:07:58;;;;;;;30.92;13.43;;;;;;;;;;5059252;28;20061;-78
2022/03/06 02:10:24;;;;;;;30.55;12.23;;;;;;;;;;5057892;28;20088;-78
2022/03/06 02:12:51;;;;;;;27.67;12.25;;;;;;;;;;5058677;28;20053;-80
2022/03/06 02:15:17;;;;;;;27.80;12.10;;;;;;;;;;5060474;28;20057;-79
2022/03/06 02:17:44;;;;;;;24.60;11.93;;;;;;;;;;5062938;28;20076;-78
2022/03/06 02:20:15;;;;;;;27.52;11.23;;;;;;;;;;5061015;28;20053;-78
2022/03/06 02:22:46;;;;;;;26.48;11.20;;;;;;;;;;5083890;28;20033;-78
2022/03/06 02:25:20;;;;;;;24.95;10.25;;;;;;;;;;5069027;28;20890;-80
2022/03/06 02:27:48;;;;;;;23.67;10.90;;;;;;;;;;5061482;28;20038;-79
2022/03/06 02:30:15;;;;;;;24.95;11.02;;;;;;;;;;5062125;28;20622;-80
2022/03/06 02:32:44;;;;;;;23.67;10.27;;;;;;;;;;5065114;28;20060;-78
2022/03/06 02:35:10;;;;;;;23.25;9.75;;;;;;;;;;5065211;28;20041;-78
2022/03/06 02:37:37;;;;;;;22.25;8.95;;;;;;;;;;5062836;28;20088;-78
2022/03/06 02:40:05;;;;;;;23.98;9.48;;;;;;;;;;5060674;28;20076;-79
2022/03/06 02:42:36;;;;;;;22.25;10.23;;;;;;;;;;5056781;28;20079;-80
2022/03/06 02:45:12;;;;;;;21.00;8.90;;;;;;;;;;5062430;28;20084;-79
2022/03/06 02:47:39;;;;;;;22.33;9.68;;;;;;;;;;5063203;28;20068;-78
2022/03/06 02:50:07;;;;;;;22.02;9.38;;;;;;;;;;5060762;28;20050;-80
2022/03/06 02:52:33;;;;;;;21.33;9.13;;;;;;;;;;5060691;28;20841;-78
2022/03/06 02:55:00;;;;;;;19.58;9.15;;;;;;;;;;5058908;28;20049;-80
2022/03/06 02:57:26;;;;;;;23.25;10.20;;;;;;;;;;5061893;28;20043;-78
2022/03/06 02:59:53;;;;;;;20.38;9.25;;;;;;;;;;5081498;28;20049;-79
2022/03/06 03:02:19;;;;;;;20.88;8.93;;;;;;;;;;5059703;28;20046;-80
2022/03/06 03:04:46;;;;;;;22.60;10.02;;;;;;;;;;5056083;28;20051;-80
2022/03/06 03:07:12;;;;;;;22.05;9.02;;;;;;;;;;5063437;28;20088;-80
2022/03/06 03:09:39;;;;;;;18.60;8.65;;;;;;;;;;5062277;28;20057;-80
2022/03/06 03:12:06;;;;;;;20.35;9.30;;;;;;;;;;5057480;28;20065;-79
2022/03/06 03:14:33;;;;;;;22.10;9.57;;;;;;;;;;5061637;28;20104;-80
2022/03/06 03:17:00;;;;;;;19.70;9.13;;;;;;;;;;5061495;28;20041;-79
2022/03/06 03:19:26;;;;;;;22.63;9.55;;;;;;;;;;5060800;28;20534;-78
2022/03/06 03:21:53;;;;;;;23.05;9.23;;;;;;;;;;5055587;28;20498;-80
2022/03/06 03:24:19;;;;;;;21.80;9.77;;;;;;;;;;5055464;28;20064;-78
2022/03/06 03:26:45;;;;;;;20.85;9.48;;;;;;;;;;5056167;28;20509;-79
2022/03/06 03:29:12;;;;;;;21.65;9.75;;;;;;;;;;5051284;28;20107;-79
2022/03/06 03:31:39;;;;;;;21.90;10.07;;;;;;;;;;5053847;28;20041;-80
2022/03/06 03:34:05;;;;;;;24.10;10.23;;;;;;;;;;5052124;28;20034;-78
2022/03/06 03:36:31;;;;;;;18.58;9.90;;;;;;;;;;5077760;28;20041;-79
2022/03/06 03:38:58;;;;;;;25.90;10.95;;;;;;;;;;5058886;28;20046;-79
2022/03/06 03:41:24;;;;;;;22.35;9.68;;;;;;;;;;5077512;28;20034;-79
2022/03/06 03:43:51;;;;;;;21.10;10.07;;;;;;;;;;5059157;28;20053;-81
2022/03/06 03:46:18;;;;;;;22.95;9.43;;;;;;;;;;5056594;28;20448;-79
2022/03/06 03:48:45;;;;;;;23.08;10.35;;;;;;;;;;5048112;28;20588;-80
2022/03/06 03:51:11;;;;;;;22.38;9.93;;;;;;;;;;5057677;28;20057;-79
2022/03/06 03:53:38;;;;;;;22.67;10.30;;;;;;;;;;5064140;28;20041;-78
2022/03/06 03:56:05;;;;;;;22.50;10.00;;;;;;;;;;5078005;28;20045;-79
2022/03/06 03:58:32;;;;;;;21.63;9.77;;;;;;;;;;5065522;28;20053;-80
2022/03/06 04:00:58;;;;;;;23.70;10.23;;;;;;;;;;5067909;28;20068;-79
2022/03/06 04:03:25;;;;;;;22.80;10.15;;;;;;;;;;5062912;28;20503;-80
2022/03/06 04:05:51;;;;;;;23.95;10.05;;;;;;;;;;5061539;28;20053;-79
2022/03/06 04:08:18;;;;;;;27.77;11.40;;;;;;;;;;5062665;28;20116;-78
2022/03/06 04:10:44;;;;;;;20.20;10.10;;;;;;;;;;5066018;28;20054;-79
2022/03/06 04:13:11;;;;;;;20.88;10.40;;;;;;;;;;5060580;28;20093;-78
2022/03/06 04:15:37;;;;;;;24.35;11.02;;;;;;;;;;5063481;28;20131;-78
2022/03/06 04:18:04;;;;;;;29.38;10.85;;;;;;;;;;5068256;28;20510;-78
2022/03/06 04:20:31;;;;;;;23.50;10.80;;;;;;;;;;5063743;28;20119;-78
2022/03/06 04:22:58;;;;;;;21.52;10.98;;;;;;;;;;5061814;28;20092;-79
2022/03/06 04:25:24;;;;;;;22.35;10.52;;;;;;;;;;5065576;28;20057;-79
2022/03/06 04:27:51;;;;;;;25.92;11.45;;;;;;;;;;5064579;28;20037;-81
2022/03/06 04:30:17;;;;;;;22.60;11.35;;;;;;;;;;5064174;28;20064;-79
2022/03/06 04:32:43;;;;;;;22.17;11.30;;;;;;;;;;5057073;28;20053;-78
2022/03/06 04:35:11;;;;;;;26.83;12.25;;;;;;;;;;5062492;28;20962;-79
2022/03/06 04:37:41;;;;;;;24.33;11.68;;;;;;;;;;5067318;28;20084;-79
2022/03/06 04:40:08;;;;;;;27.40;11.63;;;;;;;;;;5066323;28;20045;-79
2022/03/06 04:42:35;;;;;;;28.88;12.30;;;;;;;;;;5061212;28;20053;-80
2022/03/06 04:45:02;;;;;;;24.73;11.25;;;;;;;;;;5063092;28;20143;-79
2022/03/06 04:47:28;;;;;;;26.67;12.93;;;;;;;;;;5068999;28;20033;-78
2022/03/06 04:49:55;;;;;;;24.25;11.77;;;;;;;;;;5063402;28;20120;-80
2022/03/06 04:52:21;;;;;;;28.17;12.20;;;;;;;;;;5056606;28;20112;-80
2022/03/06 04:54:47;;;;;;;25.90;11.38;;;;;;;;;;5072092;28;20045;-78
2022/03/06 04:57:14;;;;;;;23.60;12.18;;;;;;;;;;5061875;28;20050;-79
2022/03/06 04:59:40;;;;;;;28.35;14.07;;;;;;;;;;5066042;28;20041;-79
2022/03/06 05:02:07;;;;;;;31.65;14.02;;;;;;;;;;5062591;28;20076;-79
2022/03/06 05:04:33;;;;;;;29.63;14.07;;;;;;;;;;5061567;28;20042;-78
2022/03/06 05:07:00;;;;;;;27.10;13.43;;;;;;;;;;5058780;28;20037;-80
2022/03/06 05:09:26;;;;;;;26.42;12.82;;;;;;;;;;5062086;28;20100;-80
2022/03/06 05:11:53;;;;;;;27.52;12.82;;;;;;;;;;5062768;28;20115;-80
2022/03/06 05:14:19;;;;;;;24.70;12.18;;;;;;;;;;5053690;28;20046;-79
2022/03/06 05:16:45;;;;;;;28.42;12.98;;;;;;;;;;5063092;28;20080;-79
2022/03/06 05:19:12;;;;;;;30.30;13.80;;;;;;;;;;5071743;28;20045;-78
2022/03/06 05:21:38;;;;;;;27.63;14.20;;;;;;;;;;5062162;28;20069;-79
2022/03/06 05:24:05;;;;;;;26.83;12.52;;;;;;;;;;5077042;28;20072;-78
2022/03/06 05:26:31;;;;;;;26.48;13.20;;;;;;;;;;5079872;28;20072;-79
2022/03/06 05:28:58;;;;;;;28.30;12.98;;;;;;;;;;5060862;28;20054;-79
2022/03/06 05:31:24;;;;;;;27.92;13.07;;;;;;;;;;5079236;28;20053;-79
2022/03/06 05:33:51;;;;;;;26.52;12.85;;;;;;;;;;5061445;28;20140;-80
2022/03/06 05:36:19;;;;;;;30.55;13.68;;;;;;;;;;5055571;28;20053;-79
2022/03/06 05:38:45;;;;;;;26.27;13.77;;;;;;;;;;5054919;28;20044;-80
2022/03/06 05:41:12;;;;;;;27.67;12.50;;;;;;;;;;5053690;28;20053;-80
2022/03/06 05:43:38;;;;;;;28.20;12.80;;;;;;;;;;5058436;28;20072;-80
2022/03/06 05:46:05;;;;;;;27.48;13.38;;;;;;;;;;5055056;28;20053;-80
2022/03/06 05:48:31;;;;;;;25.05;13.20;;;;;;;;;;5057251;28;20049;-79
2022/03/06 05:50:58;;;;;;;25.33;12.57;;;;;;;;;;5050096;28;20058;-80
2022/03/06 05:53:25;;;;;;;29.15;12.43;;;;;;;;;;5055930;28;20038;-79
2022/03/06 05:55:51;;;;;;;22.50;12.05;;;;;;;;;;5072279;28;20127;-80
2022/03/06 05:58:17;;;;;;;29.27;13.10;;;;;;;;;;5057382;28;20053;-81
2022/03/06 06:00:44;;;;;;;25.63;12.90;;;;;;;;;;5059456;28;20512;-79
2022/03/06 06:03:10;;;;;;;26.27;12.95;;;;;;;;;;5050947;28;20068;-81
2022/03/06 06:05:38;;;;;;;28.63;12.95;;;;;;;;;;5055513;28;20038;-82
2022/03/06 06:08:04;;;;;;;25.40;12.77;;;;;;;;;;5055631;28;20049;-81
2022/03/06 06:10:31;;;;;;;28.90;12.48;;;;;;;;;;5048656;28;20053;-82
2022/03/06 06:12:57;;;;;;;35.60;13.25;;;;;;;;;;5061735;28;20581;-81
2022/03/06 06:15:23;;;;;;;24.10;12.88;;;;;;;;;;5055721;28;20037;-82
2022/03/06 06:17:50;;;;;;;27.60;12.65;;;;;;;;;;5053576;28;20108;-79
2022/03/06 06:20:16;;;;;;;26.10;12.85;;;;;;;;;;5062224;28;20096;-79
2022/03/06 06:22:43;;;;;;;25.38;12.82;;;;;;;;;;5079212;28;20072;-79
2022/03/06 06:25:09;;;;;;;24.30;12.95;;;;;;;;;;5057180;28;20116;-79
2022/03/06 06:27:36;;;;;;;25.98;12.52;;;;;;;;;;5057978;28;20461;-80
2022/03/06 06:30:03;;;;;;;24.70;12.23;;;;;;;;;;5059072;28;20120;-79
2022/03/06 06:32:29;;;;;;;25.58;12.60;;;;;;;;;;5053675;28;20038;-78
2022/03/06 06:34:59;;;;;;;25.23;12.18;;;;;;;;;;5066916;28;20108;-79
2022/03/06 06:37:28;;;;;;;24.60;12.23;;;;;;;;;;5059354;28;20049;-79
2022/03/06 06:39:56;;;;;;;26.17;12.40;;;;;;;;;;5058208;28;20053;-79
2022/03/06 06:42:28;;;;;;;25.55;12.18;;;;;;;;;;5060670;28;20068;-80
2022/03/06 06:44:56;;;;;;;23.30;12.77;;;;;;;;;;5061742;28;20064;-81
2022/03/06 06:47:26;;;;;;;24.33;12.10;;;;;;;;;;5057373;28;20057;-85
2022/03/06 06:49:52;;;;;;;24.55;11.95;;;;;;;;;;5061979;28;20049;-81
2022/03/06 06:52:19;;;;;;;29.40;13.05;;;;;;;;;;5059648;28;20049;-80
2022/03/06 06:54:45;;;;;;;25.88;12.68;;;;;;;;;;5050511;28;20042;-82
2022/03/06 06:57:12;;;;;;;27.65;12.82;;;;;;;;;;5076103;28;20088;-81
2022/03/06 06:59:39;;;;;;;23.25;12.00;;;;;;;;;;5051729;28;20065;-80
2022/03/06 07:02:05;;;;;;;21.05;11.07;;;;;;;;;;5056764;28;20053;-81
2022/03/06 07:04:32;;;;;;;25.58;12.15;;;;;;;;;;5054785;28;20061;-81
2022/03/06 07:06:58;;;;;;;22.92;11.68;;;;;;;;;;5049214;28;20100;-82
2022/03/06 07:09:25;;;;;;;24.70;12.10;;;;;;;;;;5055615;28;20089;-82
2022/03/06 07:11:51;;;;;;;25.38;12.10;;;;;;;;;;5063119;28;20709;-82
2022/03/06 07:14:17;;;;;;;25.50;11.57;;;;;;;;;;5056698;28;21005;-81
2022/03/06 07:16:45;;;;;;;25.02;11.82;;;;;;;;;;5066811;28;20053;-83
2022/03/06 07:19:13;;;;;;;22.48;10.82;;;;;;;;;;5058153;28;21175;-83
2022/03/06 07:21:40;;;;;;;22.50;12.80;;;;;;;;;;5055941;28;20080;-82
2022/03/06 07:24:06;;;;;;;26.20;12.52;;;;;;;;;;5045026;28;20054;-82
2022/03/06 07:26:33;;;;;;;23.02;11.75;;;;;;;;;;5050018;28;20057;-81
2022/03/06 07:28:59;;;;;;;24.20;11.77;;;;;;;;;;5051816;28;20080;-83
2022/03/06 07:31:26;;;;;;;23.15;11.48;;;;;;;;;;5051759;28;20042;-82
2022/03/06 07:33:52;;;;;;;22.45;11.98;;;;;;;;;;5053226;28;20049;-81
2022/03/06 07:36:18;;;;;;;24.08;11.73;;;;;;;;;;5056409;28;20045;-81
2022/03/06 07:38:45;;;;;;;26.60;11.85;;;;;;;;;;5045621;28;20135;-79
2022/03/06 07:41:12;;;;;;;22.48;11.25;;;;;;;;;;5048341;28;20136;-80
2022/03/06 07:43:38;;;;;;;22.90;11.98;;;;;;;;;;5048043;28;20784;-79
2022/03/06 07:46:05;;;;;;;24.58;11.35;;;;;;;;;;5058844;28;20034;-80
2022/03/06 07:48:31;;;;;;;25.85;11.27;;;;;;;;;;5050283;28;20897;-77
2022/03/06 07:50:58;;;;;;;22.75;12.23;;;;;;;;;;5049828;28;20041;-79
2022/03/06 07:53:24;;;;;;;25.10;11.65;;;;;;;;;;5054366;28;20037;-80
2022/03/06 07:55:50;;;;;;;22.65;12.13;;;;;;;;;;5043600;28;20060;-79
2022/03/06 07:58:17;;;;;;;23.52;11.85;;;;;;;;;;5046896;28;20104;-79
2022/03/06 08:00:44;;;;;;;18.70;10.63;;;;;;;;;;5039412;28;20050;-77
2022/03/06 08:03:10;;;;;;;21.90;11.27;;;;;;;;;;5042300;28;20096;-78
2022/03/06 08:05:37;;;;;;;20.20;10.60;;;;;;;;;;5043624;28;20049;-77
2022/03/06 08:08:03;;;;;;;20.50;10.65;;;;;;;;;;5043966;28;20470;-77
2022/03/06 08:10:30;;;;;;;20.80;11.40;;;;;;;;;;5046583;28;20085;-79
2022/03/06 08:12:59;;;;;;;19.15;10.55;;;;;;;;;;5046918;28;20427;-78
2022/03/06 08:15:26;;;;;;;18.65;9.90;;;;;;;;;;5045797;28;20061;-77
2022/03/06 08:17:52;;;;;;;16.75;10.05;;;;;;;;;;5043553;28;20054;-77
2022/03/06 08:20:19;;;;;;;16.23;10.45;;;;;;;;;;5045304;28;20112;-77
2022/03/06 08:22:45;;;;;;;15.10;9.15;;;;;;;;;;5044525;28;20045;-77
2022/03/06 08:25:12;;;;;;;15.38;8.88;;;;;;;;;;5044845;28;20050;-77
2022/03/06 08:27:38;;;;;;;15.60;8.25;;;;;;;;;;5041042;28;20579;-78
2022/03/06 08:30:06;;;;;;;16.42;9.02;;;;;;;;;;5039937;28;20060;-78
2022/03/06 08:32:33;;;;;;;14.30;7.85;;;;;;;;;;5047399;28;20108;-77
2022/03/06 08:34:59;;;;;;;15.80;8.15;;;;;;;;;;5040531;28;20108;-77
2022/03/06 08:37:26;;;;;;;14.85;8.35;;;;;;;;;;5042448;28;20085;-78
2022/03/06 08:39:52;;;;;;;13.30;7.85;;;;;;;;;;5043717;28;20545;-78
2022/03/06 08:42:19;;;;;;;14.40;8.68;;;;;;;;;;5047525;28;20053;-77
2022/03/06 08:44:45;;;;;;;13.52;6.80;;;;;;;;;;5047879;28;20053;-78
2022/03/06 08:47:12;;;;;;;12.75;7.45;;;;;;;;;;5050263;28;20076;-78
2022/03/06 08:49:38;;;;;;;11.57;6.88;;;;;;;;;;5049970;28;20080;-78
2022/03/06 08:52:05;;;;;;;13.30;6.30;;;;;;;;;;5048901;28;20046;-77
2022/03/06 08:54:31;;;;;;;12.75;6.50;;;;;;;;;;5050228;28;20309;-78
2022/03/06 08:56:58;;;;;;;11.27;6.05;;;;;;;;;;5048370;28;20119;-78
2022/03/06 08:59:24;;;;;;;13.10;6.45;;;;;;;;;;5045068;28;20061;-77
2022/03/06 09:01:55;;;;;;;12.90;5.70;;;;;;;;;;5045431;28;20053;-78
2022/03/06 09:04:23;;;;;;;13.63;7.20;;;;;;;;;;5051329;28;20056;-78
2022/03/06 09:06:49;;;;;;;11.30;5.60;;;;;;;;;;5041908;28;20100;-76
2022/03/06 09:09:16;;;;;;;12.32;5.60;;;;;;;;;;5043434;28;20053;-78
2022/03/06 09:11:42;;;;;;;11.55;5.60;;;;;;;;;;5046622;28;20104;-78
2022/03/06 09:14:09;;;;;;;11.23;5.47;;;;;;;;;;5045756;28;20145;-78
2022/03/06 09:16:35;;;;;;;14.80;5.25;;;;;;;;;;5043915;28;20107;-76
2022/03/06 09:19:02;;;;;;;16.85;5.07;;;;;;;;;;5051490;28;20050;-77
2022/03/06 09:21:28;;;;;;;10.38;5.30;;;;;;;;;;5039711;28;20120;-77
2022/03/06 09:23:55;;;;;;;12.60;5.82;;;;;;;;;;5038062;28;20104;-77
2022/03/06 09:26:21;;;;;;;12.25;5.25;;;;;;;;;;5045429;28;20116;-77
2022/03/06 09:28:48;;;;;;;9.18;5.00;;;;;;;;;;5029305;28;20472;-78
2022/03/06 09:31:15;;;;;;;12.07;5.03;;;;;;;;;;5041332;28;20054;-77
2022/03/06 09:33:41;;;;;;;9.10;4.70;;;;;;;;;;5045564;28;20677;-77
2022/03/06 09:36:28;;;;;;;8.45;4.25;;;;;;;;;;5044718;28;20063;-77
2022/03/06 09:38:54;;;;;;;9.40;3.83;;;;;;;;;;5041118;28;20065;-77
2022/03/06 09:41:25;;;;;;;7.28;4.10;;;;;;;;;;5039750;28;20058;-76
2022/03/06 09:43:57;;;;;;;8.38;3.67;;;;;;;;;;5041811;28;20550;-77
2022/03/06 09:46:24;;;;;;;7.97;4.70;;;;;;;;;;5049409;28;20560;-77
2022/03/06 09:48:51;;;;;;;8.45;4.13;;;;;;;;;;5043162;28;20054;-77
2022/03/06 09:51:19;;;;;;;7.65;3.97;;;;;;;;;;5029932;28;20128;-76
2022/03/06 09:53:46;;;;;;;9.02;4.35;;;;;;;;;;5044153;28;20482;-77
2022/03/06 09:56:15;;;;;;;7.63;4.28;;;;;;;;;;5044053;28;21351;-78
2022/03/06 09:58:41;;;;;;;9.63;4.07;;;;;;;;;;5044080;28;20076;-77
2022/03/06 10:01:08;;;;;;;8.25;3.97;;;;;;;;;;5029968;28;20050;-77
2022/03/06 10:03:37;;;;;;;12.32;4.22;;;;;;;;;;5037190;28;20053;-77
2022/03/06 10:06:07;;;;;;;10.50;4.15;;;;;;;;;;5046782;28;20172;-77
2022/03/06 10:08:34;;;;;;;9.27;4.25;;;;;;;;;;5047485;28;20111;-77
2022/03/06 10:11:08;;;;;;;7.32;4.05;;;;;;;;;;5047321;28;20050;-77
2022/03/06 10:13:35;;;;;;;8.05;4.07;;;;;;;;;;5044934;28;20072;-76
2022/03/06 10:16:05;;;;;;;7.80;4.10;;;;;;;;;;5032424;28;20165;-77
2022/03/06 10:18:33;;;;;;;9.73;4.10;;;;;;;;;;5059549;28;20041;-77
2022/03/06 10:21:05;;;;;;;10.25;4.40;;;;;;;;;;5046498;28;20095;-77
2022/03/06 10:23:31;;;;;;;7.05;3.90;;;;;;;;;;5049046;28;20058;-77
2022/03/06 10:26:18;;;;;;;11.07;4.65;;;;;;;;;;5048783;28;20516;-77
2022/03/06 10:28:47;;;;;;;9.45;4.47;;;;;;;;;;5043518;28;20053;-78
2022/03/06 10:31:14;;;;;;;8.25;4.72;;;;;;;;;;5033641;28;21030;-76
2022/03/06 10:33:40;;;;;;;15.18;4.47;;;;;;;;;;5061908;28;20049;-78
2022/03/06 10:36:08;;;;;;;9.55;4.60;;;;;;;;;;5049485;28;20131;-78
2022/03/06 10:38:35;;;;;;;7.78;4.50;;;;;;;;;;5049376;28;20054;-77
2022/03/06 10:41:09;;;;;;;7.85;4.40;;;;;;;;;;5044085;28;20045;-77
2022/03/06 10:43:36;;;;;;;7.63;4.35;;;;;;;;;;5045065;28;20050;-78
2022/03/06 10:46:05;;;;;;;7.65;4.43;;;;;;;;;;5042870;28;20072;-78
2022/03/06 10:48:32;;;;;;;7.53;4.45;;;;;;;;;;5045044;28;20140;-76
2022/03/06 10:50:59;;;;;;;9.15;4.82;;;;;;;;;;5040907;28;20107;-76
2022/03/06 10:53:25;;;;;;;9.82;4.47;;;;;;;;;;5038236;28;20934;-78
2022/03/06 10:55:53;;;;;;;7.90;4.45;;;;;;;;;;5043066;28;20048;-78
2022/03/06 10:58:20;;;;;;;7.38;4.18;;;;;;;;;;5039390;28;20108;-77
2022/03/06 11:00:47;;;;;;;9.63;5.00;;;;;;;;;;5043458;28;20049;-76
2022/03/06 11:03:14;;;;;;;8.70;4.50;;;;;;;;;;5047262;28;20057;-77
2022/03/06 11:05:45;;;;;;;8.20;5.10;;;;;;;;;;5043769;28;20078;-77
2022/03/06 11:08:14;;;;;;;9.50;5.05;;;;;;;;;;5057328;28;20053;-76
2022/03/06 11:10:43;;;;;;;7.93;4.50;;;;;;;;;;5046922;28;20117;-77
2022/03/06 11:13:13;;;;;;;8.73;4.68;;;;;;;;;;5042399;28;20049;-77
2022/03/06 11:15:40;;;;;;;8.65;4.72;;;;;;;;;;5040488;28;20532;-77
2022/03/06 11:18:07;;;;;;;9.10;4.85;;;;;;;;;;5048051;28;20133;-78
2022/03/06 11:20:34;;;;;;;7.45;4.60;;;;;;;;;;5041059;28;20057;-77
2022/03/06 11:23:08;;;;;;;11.23;4.80;;;;;;;;;;5046322;28;20145;-77
2022/03/06 11:25:37;;;;;;;9.55;5.05;;;;;;;;;;5037850;28;20451;-78
2022/03/06 11:28:45;;;;;;;7.97;5.00;;;;;;;;;;5044701;28;20131;-77
2022/03/06 11:31:12;;;;;;;10.07;5.20;;;;;;;;;;5026304;28;20819;-78
2022/03/06 11:33:42;;;;;;;9.10;5.32;;;;;;;;;;5026194;28;20057;-77
2022/03/06 11:36:16;;;;;;;11.13;5.30;;;;;;;;;;5025161;28;20061;-78
2022/03/06 11:38:46;;;;;;;10.38;6.10;;;;;;;;;;5037624;28;20062;-78
2022/03/06 11:41:12;;;;;;;10.23;5.30;;;;;;;;;;5046260;28;20578;-76
2022/03/06 11:43:44;;;;;;;7.47;4.50;;;;;;;;;;5045996;28;20053;-77
2022/03/06 11:46:12;;;;;;;9.77;5.20;;;;;;;;;;5042141;28;20128;-77
2022/03/06 11:48:38;;;;;;;10.10;5.22;;;;;;;;;;5041679;28;20055;-76
2022/03/06 11:51:14;;;;;;;11.18;5.63;;;;;;;;;;5042992;28;20058;-77
2022/03/06 11:53:56;;;;;;;10.52;5.35;;;;;;;;;;5036640;28;20085;-78
2022/03/06 11:56:34;;;;;;;8.65;4.63;;;;;;;;;;5041260;28;20054;-77
2022/03/06 11:59:22;;;;;;;10.80;5.70;;;;;;;;;;5040554;28;20097;-78
2022/03/06 12:01:50;;;;;;;10.50;5.30;;;;;;;;;;5045862;28;20053;-76
2022/03/06 12:04:21;;;;;;;8.55;5.15;;;;;;;;;;5038532;28;20064;-77
2022/03/06 12:06:52;;;;;;;10.52;5.40;;;;;;;;;;5046520;28;20037;-78
2022/03/06 12:09:19;;;;;;;;;;;;;;;;;;5046294;28;20045;-77
2022/03/06 12:11:46;;;;;;;9.55;4.93;;;;;;;;;;5050910;28;45775;-78
2022/03/06 12:14:16;;;;;;;10.00;4.90;;;;;;;;;;5043897;28;20049;-76
2022/03/06 12:17:07;;;;;;;8.00;4.78;;;;;;;;;;5045916;28;20053;-77
2022/03/06 12:19:43;;;;;;;7.55;4.75;;;;;;;;;;5048438;28;20056;-76
2022/03/06 12:22:09;;;;;;;12.40;4.88;;;;;;;;;;5056406;28;20600;-77
2022/03/06 12:24:36;;;;;;;7.75;4.75;;;;;;;;;;5055915;28;20108;-78
2022/03/06 12:27:14;;;;;;;8.77;4.75;;;;;;;;;;5052102;28;20256;-78
2022/03/06 12:29:53;;;;;;;10.18;5.03;;;;;;;;;;5052163;28;20037;-77
2022/03/06 12:32:29;;;;;;;11.40;5.38;;;;;;;;;;5052406;28;20571;-78
2022/03/06 12:34:59;;;;;;;7.90;4.78;;;;;;;;;;5052196;28;20515;-77
2022/03/06 12:37:26;;;;;;;10.38;5.30;;;;;;;;;;5051996;28;21485;-80
2022/03/06 12:39:52;;;;;;;9.90;5.40;;;;;;;;;;5053597;28;20046;-79
2022/03/06 12:42:23;;;;;;;8.40;4.80;;;;;;;;;;5049077;28;20050;-78
2022/03/06 12:44:49;;;;;;;;;;;;;;;;;;5052798;28;20058;-78
2022/03/06 12:47:16;;;;;;;10.45;5.35;;;;;;;;;;5047678;28;47322;-77
2022/03/06 12:49:45;;;;;;;9.27;5.43;;;;;;;;;;5048379;28;20069;-79
2022/03/06 12:52:18;;;;;;;12.88;5.55;;;;;;;;;;5050897;28;20099;-78
2022/03/06 12:54:50;;;;;;;9.30;5.35;;;;;;;;;;5061592;28;20116;-79
2022/03/06 12:57:17;;;;;;;9.60;5.43;;;;;;;;;;5034903;28;20058;-79
2022/03/06 12:59:48;;;;;;;9.20;5.18;;;;;;;;;;5050437;28;20060;-79
2022/03/06 13:02:14;;;;;;;;;;;;;;;;;;5046050;28;20057;-78
2022/03/06 13:04:51;;;;;;;7.57;4.78;;;;;;;;;;5049325;28;44535;-78
2022/03/06 13:07:25;;;;;;;9.18;5.57;;;;;;;;;;5052413;28;21056;-78
2022/03/06 13:10:02;;;;;;;8.13;5.38;;;;;;;;;;5050804;28;20053;-77
2022/03/06 13:12:38;;;;;;;10.75;5.00;;;;;;;;;;5061912;28;20141;-79
2022/03/06 13:15:14;;;;;;;8.45;4.88;;;;;;;;;;5041600;28;20061;-76
2022/03/06 13:17:41;;;;;;;11.40;5.25;;;;;;;;;;5066016;28;20870;-78
2022/03/06 13:20:09;;;;;;;8.27;4.82;;;;;;;;;;5048856;28;20111;-79
2022/03/06 13:22:35;;;;;;;9.05;4.82;;;;;;;;;;5050388;28;20053;-78
2022/03/06 13:25:02;;;;;;;7.82;4.82;;;;;;;;;;5046076;28;20516;-76
2022/03/06 13:27:40;;;;;;;8.15;5.00;;;;;;;;;;5051785;28;20053;-78
2022/03/06 13:30:07;;;;;;;9.98;5.35;;;;;;;;;;5050273;28;20097;-78
2022/03/06 13:32:35;;;;;;;8.45;4.65;;;;;;;;;;5048664;28;20064;-78
2022/03/06 13:35:02;;;;;;;10.40;5.35;;;;;;;;;;5051777;28;20037;-78
2022/03/06 13:37:38;;;;;;;10.70;4.82;;;;;;;;;;5046000;28;20054;-78
2022/03/06 13:40:09;;;;;;;8.55;4.97;;;;;;;;;;5047696;28;20112;-78
2022/03/06 13:42:36;;;;;;;8.10;4.45;;;;;;;;;;5048898;28;20235;-78
2022/03/06 13:45:04;;;;;;;8.57;3.70;;;;;;;;;;5062831;28;20054;-78
2022/03/06 13:47:40;;;;;;;7.30;3.72;;;;;;;;;;5052597;28;20033;-78
2022/03/06 13:50:07;;;;;;;6.13;3.22;;;;;;;;;;5045298;28;21095;-77
2022/03/06 13:52:35;;;;;;;6.38;3.38;;;;;;;;;;5052900;28;20059;-77
2022/03/06 13:55:03;;;;;;;6.75;3.25;;;;;;;;;;5051862;28;20058;-78
2022/03/06 13:57:31;;;;;;;9.13;3.10;;;;;;;;;;5044269;28;20541;-78
2022/03/06 13:59:57;;;;;;;6.22;3.17;;;;;;;;;;5035024;28;20054;-78
2022/03/06 14:02:26;;;;;;;6.97;3.35;;;;;;;;;;5048429;28;20191;-78
2022/03/06 14:04:53;;;;;;;6.30;3.30;;;;;;;;;;5045972;28;20148;-78
2022/03/06 14:07:24;;;;;;;5.60;3.47;;;;;;;;;;5045488;28;20103;-78
2022/03/06 14:09:50;;;;;;;6.25;2.72;;;;;;;;;;5050735;28;20131;-78
2022/03/06 14:12:20;;;;;;;6.78;2.55;;;;;;;;;;5051000;28;20069;-77
2022/03/06 14:14:48;;;;;;;4.90;2.58;;;;;;;;;;5049837;28;20520;-78
2022/03/06 14:17:15;;;;;;;8.77;3.08;;;;;;;;;;5035133;28;20061;-78
2022/03/06 14:19:55;;;;;;;7.25;2.63;;;;;;;;;;5048019;28;20702;-78
2022/03/06 14:22:21;;;;;;;10.73;2.80;;;;;;;;;;5051633;28;20057;-78
2022/03/06 14:24:48;;;;;;;4.95;2.67;;;;;;;;;;5049636;28;20057;-79
2022/03/06 14:27:14;;;;;;;5.30;2.60;;;;;;;;;;5051964;28;20080;-78
2022/03/06 14:29:46;;;;;;;;;;;;;;;;;;5034717;28;20061;-78
2022/03/06 14:32:13;;;;;;;6.05;2.67;;;;;;;;;;5043058;28;47957;-77